createdAt,value
2019-05-30T00:03:30.428Z,4.05
2019-05-30T00:08:33.823Z,4.47
2019-05-30T00:13:38.532Z,3.75
2019-05-30T00:18:42.073Z,3.45
2019-05-30T00:23:45.446Z,3.00
2019-05-30T00:28:48.952Z,3.45
2019-05-30T00:33:52.834Z,2.85
2019-05-30T00:38:56.082Z,2.80
2019-05-30T00:43:59.973Z,3.02
2019-05-30T00:49:06.643Z,3.75
2019-05-30T00:54:10.782Z,3.33
2019-05-30T00:59:15.395Z,2.30
2019-05-30T01:04:19.362Z,2.45
2019-05-30T01:09:22.732Z,2.47
2019-05-30T01:14:26.475Z,2.47
2019-05-30T01:19:29.979Z,2.72
2019-05-30T01:24:33.413Z,2.72
2019-05-30T01:29:37.499Z,2.47
2019-05-30T01:34:40.911Z,2.45
2019-05-30T01:39:44.223Z,3.12
2019-05-30T01:44:47.524Z,3.62
2019-05-30T01:49:51.689Z,3.20
2019-05-30T01:54:56.045Z,3.70
2019-05-30T02:00:00.784Z,3.30
2019-05-30T02:05:05.077Z,2.70
2019-05-30T02:10:10.079Z,2.70
2019-05-30T02:15:15.005Z,2.80
2019-05-30T02:20:18.601Z,2.72
2019-05-30T02:25:23.296Z,3.02
2019-05-30T02:30:26.710Z,2.90
2019-05-30T02:35:30.430Z,3.08
2019-05-30T02:40:33.932Z,3.00
2019-05-30T02:45:37.532Z,2.98
2019-05-30T02:50:41.291Z,2.67
2019-05-30T02:55:44.828Z,3.08
2019-05-30T03:00:48.526Z,3.20
2019-05-30T03:05:51.838Z,2.85
2019-05-30T03:10:55.969Z,2.95
2019-05-30T03:16:02.163Z,2.80
2019-05-30T03:21:08.626Z,2.90
2019-05-30T03:26:15.152Z,2.98
2019-05-30T03:31:27.791Z,2.83
2019-05-30T03:36:30.968Z,3.12
2019-05-30T03:41:29.888Z,3.20
2019-05-30T03:46:39.300Z,2.33
2019-05-30T03:51:46.966Z,2.17
2019-05-30T03:57:06.848Z,1.75
2019-05-30T04:02:55.336Z,2.20
2019-05-30T04:07:49.280Z,2.10
2019-05-30T04:13:40.289Z,2.02
2019-05-30T04:18:43.915Z,2.05
2019-05-30T04:23:47.829Z,2.02
2019-05-30T04:28:51.387Z,2.35
2019-05-30T04:33:54.872Z,1.82
2019-05-30T04:38:58.997Z,2.05
2019-05-30T04:44:02.579Z,2.22
2019-05-30T04:49:06.968Z,1.50
2019-05-30T04:54:13.035Z,1.60
2019-05-30T04:59:19.853Z,1.67
2019-05-30T05:04:22.987Z,1.47
2019-05-30T05:09:26.291Z,1.40
2019-05-30T05:14:29.872Z,1.72
2019-05-30T05:19:33.324Z,1.67
2019-05-30T05:24:36.767Z,1.35
2019-05-30T05:29:40.117Z,1.47
2019-05-30T05:34:43.481Z,1.60
2019-05-30T05:39:46.831Z,1.50
2019-05-30T05:44:50.492Z,1.37
2019-05-30T05:49:54.037Z,1.05
2019-05-30T05:54:57.888Z,1.15
2019-05-30T06:00:01.388Z,0.80
2019-05-30T06:05:05.788Z,1.00
2019-05-30T06:10:10.687Z,1.07
2019-05-30T06:15:14.222Z,0.85
2019-05-30T06:20:19.195Z,0.65
2019-05-30T06:25:25.213Z,1.10
2019-05-30T06:30:28.769Z,0.70
2019-05-30T06:35:32.416Z,0.65
2019-05-30T06:40:35.795Z,0.82
2019-05-30T06:45:39.438Z,1.25
2019-05-30T06:50:42.969Z,0.60
2019-05-30T06:55:47.048Z,0.60
2019-05-30T07:00:50.451Z,0.62
2019-05-30T07:05:54.250Z,0.70
2019-05-30T07:10:58.504Z,0.60
2019-05-30T07:16:02.539Z,0.80
2019-05-30T07:21:05.906Z,0.57
2019-05-30T07:26:09.212Z,0.60
2019-05-30T07:31:13.636Z,0.85
2019-05-30T07:36:17.093Z,1.10
2019-05-30T07:41:20.766Z,0.40
2019-05-30T07:46:24.804Z,0.78
2019-05-30T07:51:28.516Z,0.60
2019-05-30T07:56:33.378Z,0.60
2019-05-30T08:01:36.862Z,0.50
2019-05-30T08:06:40.938Z,0.35
2019-05-30T08:11:44.424Z,0.50
2019-05-30T08:16:48.040Z,1.00
2019-05-30T08:21:51.516Z,0.50
2019-05-30T08:26:55.042Z,0.70
2019-05-30T08:31:58.614Z,0.70
2019-05-30T08:37:01.992Z,0.40
2019-05-30T08:42:05.428Z,0.80
2019-05-30T08:47:08.869Z,0.57
2019-05-30T08:52:12.308Z,0.62
2019-05-30T08:57:15.796Z,0.42
2019-05-30T09:02:20.186Z,0.70
2019-05-30T09:07:23.918Z,0.82
2019-05-30T09:12:28.249Z,1.35
2019-05-30T09:17:32.036Z,0.90
2019-05-30T09:22:35.403Z,1.30
2019-05-30T09:27:40.873Z,1.00
2019-05-30T09:32:45.325Z,0.80
2019-05-30T09:37:49.486Z,0.90
2019-05-30T09:42:53.458Z,1.10
2019-05-30T09:47:57.967Z,0.60
2019-05-30T09:53:01.417Z,1.00
2019-05-30T09:58:05.217Z,1.35
2019-05-30T10:03:08.971Z,0.60
2019-05-30T10:08:12.720Z,0.75
2019-05-30T10:13:16.064Z,2.33
2019-05-30T10:18:19.759Z,0.80
2019-05-30T10:23:23.910Z,0.70
2019-05-30T10:28:27.542Z,0.57
2019-05-30T10:33:31.064Z,1.27
2019-05-30T10:38:34.433Z,0.42
2019-05-30T10:43:40.245Z,0.68
2019-05-30T10:48:44.131Z,0.60
2019-05-30T10:53:49.044Z,0.60
2019-05-30T10:58:53.382Z,0.70
2019-05-30T11:03:57.058Z,0.80
2019-05-30T11:09:04.984Z,0.70
2019-05-30T11:14:08.991Z,0.60
2019-05-30T11:19:12.345Z,0.90
2019-05-30T11:24:15.807Z,0.60
2019-05-30T11:29:19.203Z,0.85
2019-05-30T11:34:22.897Z,0.60
2019-05-30T11:39:26.887Z,0.70
2019-05-30T11:44:30.154Z,0.60
2019-05-30T11:49:33.469Z,0.65
2019-05-30T11:54:36.969Z,1.10
2019-05-30T11:59:40.939Z,0.90
2019-05-30T12:04:44.578Z,0.70
2019-05-30T12:09:48.248Z,0.82
2019-05-30T12:14:51.590Z,1.00
2019-05-30T12:19:55.968Z,0.75
2019-05-30T12:25:00.479Z,1.00
2019-05-30T12:30:04.771Z,0.80
2019-05-30T12:35:09.064Z,0.70
2019-05-30T12:40:14.486Z,0.85
2019-05-30T12:45:18.285Z,0.78
2019-05-30T12:50:21.817Z,1.07
2019-05-30T12:55:25.307Z,0.70
2019-05-30T13:00:31.754Z,0.93
2019-05-30T13:05:36.108Z,0.88
2019-05-30T13:10:39.531Z,0.90
2019-05-30T13:15:42.967Z,1.02
2019-05-30T13:20:46.411Z,1.02
2019-05-30T13:25:49.832Z,0.72
2019-05-30T13:30:54.069Z,0.75
2019-05-30T13:35:58.908Z,0.90
2019-05-30T13:41:03.521Z,0.93
2019-05-30T13:46:08.416Z,1.00
2019-05-30T13:51:12.141Z,0.70
2019-05-30T13:56:15.874Z,0.93
2019-05-30T14:01:21.096Z,1.00
2019-05-30T14:06:24.453Z,1.15
2019-05-30T14:11:28.042Z,0.68
2019-05-30T14:16:31.777Z,0.88
2019-05-30T14:21:36.240Z,0.90
2019-05-30T14:26:39.622Z,0.90
2019-05-30T14:31:43.075Z,0.82
2019-05-30T14:36:47.353Z,1.02
2019-05-30T14:41:50.999Z,0.90
2019-05-30T14:46:54.469Z,0.70
2019-05-30T14:51:59.631Z,0.78
2019-05-30T14:57:05.288Z,0.85
2019-05-30T15:02:13.354Z,0.78
2019-05-30T15:07:16.819Z,0.80
2019-05-30T15:12:21.260Z,0.80
2019-05-30T15:17:24.710Z,0.70
2019-05-30T15:22:28.335Z,0.80
2019-05-30T15:27:32.727Z,0.70
2019-05-30T15:32:36.476Z,0.75
2019-05-30T15:37:41.286Z,0.80
2019-05-30T15:42:44.904Z,0.98
2019-05-30T15:47:48.490Z,1.00
2019-05-30T15:52:52.530Z,1.80
2019-05-30T15:57:56.234Z,3.10
2019-05-30T16:03:00.227Z,2.95
2019-05-30T16:08:03.977Z,3.45
2019-05-30T16:13:11.551Z,3.12
2019-05-30T16:18:15.692Z,1.83
2019-05-30T16:23:20.459Z,1.40
2019-05-30T16:28:23.954Z,1.00
2019-05-30T16:33:27.900Z,0.70
2019-05-30T16:38:31.594Z,0.75
2019-05-30T16:43:35.276Z,0.65
2019-05-30T16:48:40.541Z,0.70
2019-05-30T16:53:44.908Z,0.75
2019-05-30T16:58:48.728Z,0.85
2019-05-30T17:03:52.537Z,0.72
2019-05-30T17:08:56.441Z,0.80
2019-05-30T17:14:01.255Z,0.72
2019-05-30T17:19:16.499Z,0.95
2019-05-30T17:24:21.003Z,0.60
2019-05-30T17:29:25.654Z,0.68
2019-05-30T17:34:29.240Z,0.93
2019-05-30T17:39:32.608Z,0.60
2019-05-30T17:44:35.908Z,0.70
2019-05-30T17:49:39.714Z,1.12
2019-05-30T17:54:43.430Z,0.80
2019-05-30T17:59:47.784Z,0.90
2019-05-30T18:04:51.713Z,1.10
2019-05-30T18:09:56.004Z,1.57
2019-05-30T18:14:59.519Z,1.20
2019-05-30T18:20:04.622Z,1.12
2019-05-30T18:25:10.760Z,1.50
2019-05-30T18:30:16.072Z,1.20
2019-05-30T18:35:19.801Z,1.05
2019-05-30T18:40:31.343Z,1.02
2019-05-30T18:45:38.708Z,4.72
2019-05-30T18:50:42.232Z,2.22
2019-05-30T18:55:45.689Z,2.02
2019-05-30T19:00:49.817Z,2.60
2019-05-30T19:05:54.028Z,3.62
2019-05-30T19:11:00.723Z,3.77
2019-05-30T19:16:04.334Z,3.60
2019-05-30T19:21:07.625Z,5.67
2019-05-30T19:26:11.657Z,6.70
2019-05-30T19:31:15.341Z,6.30
2019-05-30T19:36:18.663Z,5.60
2019-05-30T19:41:22.279Z,6.55
2019-05-30T19:46:26.277Z,6.22
2019-05-30T19:51:31.489Z,6.12
2019-05-30T19:56:38.793Z,6.12
2019-05-30T20:01:40.840Z,7.47
2019-05-30T20:06:45.883Z,6.53
2019-05-30T20:12:02.615Z,6.45
2019-05-30T20:16:55.148Z,6.72
2019-05-30T20:21:58.544Z,7.70
2019-05-30T20:27:01.896Z,7.28
2019-05-30T20:32:05.345Z,6.55
2019-05-30T20:37:08.799Z,9.35
2019-05-30T20:42:19.123Z,9.50
2019-05-30T20:47:19.185Z,8.75
2019-05-30T20:52:22.636Z,9.13
2019-05-30T20:57:26.669Z,10.23
2019-05-30T21:02:30.358Z,9.95
2019-05-30T21:07:35.949Z,9.05
2019-05-30T21:12:43.563Z,8.23
2019-05-30T21:17:46.222Z,7.78
2019-05-30T21:22:49.767Z,8.18
2019-05-30T21:27:53.540Z,6.97
2019-05-30T21:32:58.223Z,7.05
2019-05-30T21:38:01.806Z,6.75
2019-05-30T21:43:07.196Z,5.22
2019-05-30T21:48:11.733Z,6.12
2019-05-30T21:53:15.341Z,5.90
2019-05-30T21:58:18.988Z,5.65
2019-05-30T22:03:22.551Z,6.10
2019-05-30T22:08:26.313Z,5.10
2019-05-30T22:13:29.928Z,5.05
2019-05-30T22:18:33.542Z,6.20
2019-05-30T22:23:36.892Z,6.83
2019-05-30T22:28:40.335Z,7.28
2019-05-30T22:33:44.680Z,6.85
2019-05-30T22:38:51.318Z,6.53
2019-05-30T22:49:03.429Z,6.50
2019-05-30T22:54:16.876Z,7.03
2019-05-30T22:59:23.677Z,6.95
2019-05-30T23:04:28.663Z,6.50
2019-05-30T23:09:34.831Z,6.45
2019-05-30T23:14:38.295Z,6.30
2019-05-30T23:19:53.313Z,6.42
2019-05-30T23:24:58.457Z,6.30
2019-05-30T23:30:21.631Z,6.50
2019-05-30T23:35:26.978Z,5.95
2019-05-30T23:40:33.894Z,5.70
2019-05-30T23:45:38.344Z,6.10
2019-05-30T23:50:42.100Z,5.53
2019-05-30T23:55:47.582Z,6.28
